AirNav   Everest Fuels
 
 1007 users online  

PS80 Robbins Nest Heliport
Quakertown, Pennsylvania, USA

GOING TO QUAKERTOWN?


FAA INFORMATION EFFECTIVE 07 NOVEMBER 2019

Location

FAA Identifier: PS80
Lat/Long: 40-22-09.3650N 075-23-49.6400W
40-22.156083N 075-23.827333W
40.3692681,-75.3971222
(estimated)
Elevation: 450 ft. / 137 m (estimated)
Variation: 11W (1986)
From city: 6 miles SW of QUAKERTOWN, PA
Time zone: UTC -5 (UTC -4 during Daylight Saving Time)
Zip code: 18054

Heliport Operations

Heliport use: Private use. Permission required prior to landing
Activation date: 04/1986
Control tower: no
ARTCC: NEW YORK CENTER
FSS: WILLIAMSPORT FLIGHT SERVICE STATION
Attendance: UNATNDD
Wind indicator: yes
Segmented circle: no

Heliport Communications

WX AWOS-3 at UKT (4 nm N): 119.475 (215-538-7610)
WX AWOS-3 at CKZ (5 nm E): 126.325 (215-257-7291)
WX ASOS at PTW (11 nm SW): 119.425 (610-495-0823)
WX ASOS at DYL (13 nm E): 118.875 (215-345-0392)
WX AWOS-3 at XLL (13 nm N): 127.875 (610-231-3111)
WX AWOS-3 at LOM (15 nm SE): 118.925 (215-646-1068)
WX ASOS at ABE (17 nm N): PHONE 610-266-3579

Nearby radio navigation aids

VOR radial/distance  VOR name  Freq  Var
PTWr049/11.6POTTSTOWN VORTAC116.5009W
ETXr143/18.2EAST TEXAS VOR/DME110.2009W
FJCr183/21.6ALLENTOWN VORTAC117.5010W
ARDr297/23.5YARDLEY VOR/DME108.2010W
MXEr034/29.8MODENA VORTAC113.2009W
SBJr257/32.5SOLBERG VOR/DME112.9010W
BWZr237/36.7BROADWAY VOR/DME114.2011W

 
NDB name  Hdg/Dist  Freq  Var  ID
AMBLER353/15.527512WING .. -. --.

Heliport Services

Runway Information

Helipad H1

Dimensions: 50 x 50 ft. / 15 x 15 m
Surface: asphalt
Traffic pattern: leftleft

Heliport Ownership and Management from official FAA records

Ownership: Privately-owned
Owner: RONALD E. ROBBINS, JR.
205 ROCKY DALE ROAD
GREEN LANE, PA 18054
Phone 215-257-9593

Heliport Operational Statistics

Aircraft based on the field: 1
Helicopters: 1
    

Additional Remarks

FOR CD CTC PHILADELPHIA APCH AT 800-354-9884.

Instrument Procedures

There are no published instrument procedures at PS80.

Some nearby airports with instrument procedures:

KUKT - Quakertown Airport (4 nm N)
KCKZ - Pennridge Airport (5 nm E)
N10 - Perkiomen Valley Airport (10 nm S)
KPTW - Heritage Field Airport (11 nm SW)
KDYL - Doylestown Airport (13 nm E)
KXLL - Allentown Queen City Municipal Airport (13 nm N)
N47 - Pottstown Municipal Airport (14 nm SW)
KLOM - Wings Field Airport (15 nm SE)
KABE - Lehigh Valley International Airport (17 nm N)
 
Loc | Ops | Rwys | IFR | FBO | Links
Com | Nav | Svcs | Stats | Notes
Area around PS80 (Robbins Nest Heliport)
 
Road maps at: MapQuest Bing Google
 
Aerial photo
No photo
 
Sectional chart

 
Airport distance calculator
Flying to Robbins Nest Heliport? Find the distance to fly.

From to PS80

Sunrise and sunset
Times for 21-Nov-2019
 Local
(UTC-5)
 Zulu
(UTC)
Morning civil twilight06:2611:26
Sunrise06:5511:55
Sunset16:3921:39
Evening civil twilight17:0922:09

Current date and time
Zulu (UTC)  22-Nov-2019 00:56:01
Local (UTC-5)  21-Nov-2019 19:56:01
 
METAR
KUKT 
4nm N 
220040Z AUTO 00000KT 10SM CLR 08/00 A3007 RMK A01
KCKZ 
5nm E 
220035Z AUTO 21003KT 10SM FEW120 08/00 A3008 RMK AO2
KPTW 
11nm SW 
212354Z AUTO 18003KT 8SM CLR 08/M01 A3010 RMK AO2 SLP191 T00831006 10117 20072 56012
KXLL 
13nm N 
220035Z AUTO 18003KT 10SM CLR 08/01 A3007 RMK AO2
KDYL 
13nm E 
212354Z AUTO 20004KT 10SM CLR 09/M01 A3008 RMK AO2 SLP190 T00941006 10122 20089 55006
KLOM 
15nm SE 
220035Z AUTO 21005KT 10SM CLR 08/01 A3009 RMK AO2 T00840011
KABE 
17nm N 
212351Z 23005KT 10SM CLR 09/00 A3007 RMK AO2 SLP183 T00890000 10122 20083 56013
TAF
KABE 
17nm N 
211720Z 2118/2218 24005KT P6SM FEW250 FM212300 VRB03KT P6SM BKN200 FM221400 24006KT P6SM BKN060 FM221600 28012KT 6SM -SHRA BR OVC035
NOTAMs
Click for the latest NOTAMs
NOTAMs are issued by the DoD/FAA and will open in a separate window not controlled by AirNav.

 

 
 

Would you like to see your business listed on this page?

 If your business provides an interesting product or service to pilots, flight crews, aircraft, or users of the Robbins Nest Heliport, you should consider listing it here.  To start the listing process, click on the button below
 
Add a business
 

Other Pages about Robbins Nest Heliport

Update a link
 
Copyright © AirNav, LLC. All rights reserved. Privacy Policy  Contact